Central Sierra Snow Lab Weather observations

Data are for 10 minute period ending at time listed.
 Day   Time    Incoming  Reflected   Ave.   Ave.    Ave.    Vector  Max.    Ave.    Total    Snow   
  of    of      Solar     Solar      Air    Rel.    Wind    Wind    Wind   Baro.   Precip.   Depth  
Year   Day     Radiation Radiation   Temp.  Humid.  Speed   Dir.    Gust   Press.                   
2015   (PST)    Kw/m2     Kw/m2       F       %      mph     deg.    mph     mb.     in.      in.   
----------------------------------------------------------------------------------------------------
  57   21:50    0.000     999.000     29.4     66     2.4      26     3.6   786.40   15.37   -2.70  
  57   22:00    0.000     999.000     29.4     67     2.4      28     3.6   786.40   15.37   -2.70  
  57   22:10    0.000     999.000     29.7     68     1.9      26     2.7   786.20   15.37   -2.70  
  57   22:20    0.000     999.000     30.1     71     2.1      32     3.1   786.20   15.37   -2.70  
  57   22:30    0.000     999.000     30.3     72     1.8      32     2.9   786.10   15.38   -2.70  
  57   22:40    0.000     999.000     30.4     74     2.3      24     3.2   786.10   15.37   -2.70  
  57   22:50    0.000     999.000     30.9     74     1.4      60     2.8   786.20   15.37   -2.70  
  57   23:00    0.000     999.000     32.5     71     1.3     167     3.0   786.20   15.38   -2.50  
  57   23:10    0.000     999.000     33.3     68     1.0     158     2.0   786.10   15.38   -2.60  
  57   23:20    0.000     999.000     33.3     69     1.2     162     2.0   786.00   15.38   -2.60  
  57   23:30    0.000     999.000     33.5     69     1.3     179     3.6   785.80   15.38   -2.70  
  57   23:40    0.000     999.000     33.9     69     0.7     220     3.1   785.70   15.38   -2.80  
  57   23:50    0.000     999.000     34.2     68     0.7     278     2.5   785.60   15.38   -2.70  
  58    0:00    0.000     999.000     34.4     68     0.8     180     2.2   785.70   15.38   -2.70  
  58    0:10    0.000     999.000     34.4     68     1.7     179     5.0   785.60   15.38   -2.80  
  58    0:20    0.000     999.000     34.2     69     1.3     150     2.7   785.50   15.38   -2.80  
  58    0:30    0.000     999.000     34.0     69     0.8     134     1.6   785.50   15.37   -2.80  
  58    0:40    0.000     999.000     33.9     69     1.0     163     2.0   785.50   15.37   -2.80  
  58    0:50    0.000     999.000     33.9     70     1.5     184     3.4   785.40   15.38   -2.80  
  58    1:00    0.000     999.000     33.8     70     1.5     185     4.1   785.40   15.38   -2.80  
  58    1:10    0.000     999.000     33.8     72     1.4     186     3.3   785.20   15.37   -2.70  
  58    1:20    0.000     999.000     33.7     74     0.6     202     1.8   785.10   15.38   -2.70  
  58    1:30    0.000     999.000     33.6     75     0.8     185     2.6   785.00   15.38   -2.70  
  58    1:40    0.000     999.000     33.8     75     1.4     241     3.7   784.90   15.38   -2.70  
  58    1:50    0.000     999.000     33.9     74     1.8     346     3.6   785.00   15.38   -2.70  
  58    2:00    0.000     999.000     33.8     75     1.3     212     6.1   784.90   15.37   -2.70  
  58    2:10    0.000     999.000     33.7     76     1.3     199     4.0   784.90   15.37   -2.70  
  58    2:20    0.000     999.000     33.6     77     1.0     346     2.6   784.80   15.38   -2.70  
  58    2:30    0.000     999.000     33.5     77     0.0     337     0.8   784.60   15.37   -2.70  
  58    2:40    0.000     999.000     33.4     78     0.0     127     1.1   784.50   15.37   -2.70  
  58    2:50    0.000     999.000     33.3     78     0.3     138     1.5   784.30   15.37   -2.70  
  58    3:00    0.000     999.000     33.2     78     0.7     167     1.5   784.10   15.38   -2.70  
  58    3:10    0.000     999.000     33.0     79     0.1     152     0.9   784.10   15.38   -2.70  
  58    3:20    0.000     999.000     32.9     78     0.4     147     1.7   783.90   15.38   -2.70  
  58    3:30    0.000     999.000     32.8     78     0.5     339     2.7   783.80   15.38   -2.60  
  58    3:40    0.000     999.000     32.7     78     0.5     303     1.9   783.90   15.38   -2.60  
  58    3:50    0.000     999.000     32.5     78     0.6     290     2.0   783.70   15.38   -2.70  
  58    4:00    0.000     999.000     32.3     78     0.2     250     1.7   783.50   15.38   -2.80  
  58    4:10    0.000     999.000     31.6     80     0.2     179     1.3   783.40   15.38   -2.80  
  58    4:20    0.000     999.000     30.8     82     0.3      17     1.8   783.40   15.37   -2.80  
  58    4:30    0.000     999.000     30.5     84     1.2     336     3.1   783.40   15.37   -2.70  
  58    4:40    0.000     999.000     30.9     85     0.6     282     2.3   783.40   15.37   -2.70  
  58    4:50    0.000     999.000     31.0     84     0.9     216     3.0   783.40   15.37   -2.70  
  58    5:00    0.000     999.000     30.9     84     0.9     171     1.9   783.40   15.37   -2.80  
  58    5:10    0.000     999.000     30.9     85     0.4     183     1.6   783.20   15.38   -2.80  
  58    5:20    0.000     999.000     30.9     85     0.2     260     1.4   783.20   15.37   -2.90  
  58    5:30    0.000     999.000     30.9     86     0.6     222     1.8   783.20   15.38   -2.90  
  58    5:40    0.000     999.000     30.9     86     0.1     254     1.2   783.10   15.38   -2.90  
  58    5:50    0.000     999.000     30.8     86     0.5     173     2.0   783.10   15.38   -2.80  
  58    6:00    0.000     999.000     30.5     87     0.9     181     2.0   783.10   15.38   -2.80  
  58    6:10    0.000     999.000     30.2     88     0.2     255     1.4   783.10   15.37   -2.80  
  58    6:20    0.000     999.000     30.1     89     0.7     284     1.8   783.00   15.37   -2.80  
  58    6:30    0.000     999.000     30.1     90     0.8     289     3.8   782.90   15.37   -2.80  
  58    6:40    0.002     999.000     30.0     91     0.1     202     2.1   782.90   15.37   -2.80  
  58    6:50    0.003     999.000     30.0     90     1.0     200     4.5   782.80   15.38   -2.80  
  58    7:00    0.008     999.000     30.4     89     2.0     209     5.7   782.80   15.37   -2.80  
  58    7:10    0.016     999.000     30.7     88     2.1     215     5.8   782.70   15.38   -2.80  
  58    7:20    0.028     999.000     30.8     88     1.7     241     7.5   782.60   15.37   -2.80  
  58    7:30    0.025     999.000     30.9     88     1.9     201     5.0   782.60   15.37   -2.90  
  58    7:40    0.033     999.000     31.0     87     2.7     203     6.9   782.60   15.37   -2.90  
  58    7:50    0.059     999.000     31.3     86     2.3     216     5.7   782.70   15.38   -3.00  
  58    8:00    0.049     999.000     31.3     86     2.3     207     5.0   782.60   15.38   -2.90  
  58    8:10    0.080     999.000     31.5     86     2.3     207     4.9   782.50   15.38   -2.90  
  58    8:20    0.078     999.000     31.6     86     2.2     225     4.7   782.40   15.38   -3.00  
  58    8:30    0.102     999.000     31.9     85     2.2     218     5.0   782.50   15.37   -2.90  
  58    8:40    0.048     999.000     32.0     85     1.9     213     7.5   782.50   15.38   -2.90  
  58    8:50    0.090     999.000     32.1     85     2.9     221     7.8   782.40   15.37   -2.90  
  58    9:00    0.121     999.000     32.3     84     2.4     212     6.7   782.40   15.38   -2.90  
  58    9:10    0.100     999.000     32.6     82     2.5     229     5.4   782.20   15.38   -3.00  
  58    9:20    0.126     999.000     32.3     85     1.9     219     6.1   782.20   15.40   -3.00  
  58    9:30    0.128     999.000     32.4     83     3.1     223     9.3   782.10   15.39   -3.00  
  58    9:40    0.093     999.000     32.0     84     2.9     209     8.1   782.10   15.39   -3.00  
  58    9:50    0.022     999.000     31.4     89     2.8     212     9.0   782.10   15.42   -3.10  
  58   10:00    0.048     999.000     30.3     98     2.3     203     6.4   782.20   15.41   -4.50  
  58   10:10    0.091     999.000     30.6    100     2.8     255     8.1   782.10   15.44   -3.80  
  58   10:20    0.100     999.000     30.8     96     3.2     213     8.0   782.10   15.44   -3.50  
  58   10:30    0.245     999.000     31.8     87     3.8     203     8.8   781.90   15.44   -3.40  
  58   10:40    0.128     999.000     31.8     85     3.7     229    10.7   781.90   15.44   -3.20  
  58   10:50    0.248     999.000     31.6     83     4.3     211     9.8   781.90   15.44   -3.20  
  58   11:00    0.542     999.000     33.0     78     3.7     203     9.2   781.90   15.44   -5.10  
  58   11:10    0.730     999.000     36.2     70     4.1     221    11.5   781.80   15.44   -3.80  
  58   11:20    0.273     999.000     34.7     71     3.6     203     8.1   781.70   15.44   -3.50  
  58   11:30    0.224     999.000     33.7     72     3.3     226     8.5   781.60   15.44   -3.10  
  58   11:40    0.148     999.000     33.0     74     3.8     242     8.8   781.60   15.44   -3.00  
  58   11:50    0.223     999.000     33.1     73     3.5     216    10.9   781.40   15.44   -2.90  
  58   12:00    0.211     999.000     33.1     75     3.6     224     8.9   781.40   15.44   -2.90  
  58   12:10    0.310     999.000     33.5     73     3.9     208    15.2   781.20   15.44   -3.00  
  58   12:20    0.317     999.000     34.5     70     3.4     207     8.6   781.10   15.45   -3.20  
  58   12:30    0.185     999.000     33.5     71     4.0     223    11.7   781.00   15.44   -3.00  
  58   12:40    0.238     999.000     33.9     70     3.2     203     7.2   780.80   15.44   -3.10  
  58   12:50    0.150     999.000     33.7     70     3.9     226    10.5   780.60   15.44   -2.90  
  58   13:00    0.515     999.000     35.3     64     3.9     216     9.7   780.50   15.45   -3.30  
  58   13:10    0.090     999.000     33.4     74     4.1     215    11.6   780.50   15.43   -3.10  
  58   13:20    0.109     999.000     31.3     83     2.9     205     6.7   780.40   15.45   -3.10  
  58   13:30    0.057     999.000     31.0     85     3.1     224     8.2   780.30   15.45   -3.00  
  58   13:40    0.124     999.000     30.4     90     2.7     199     8.4   780.30   15.46   -3.00  
  58   13:50    0.084     999.000     29.5     94     2.2     200     5.3   780.30   15.47   -3.20  
  58   14:00    0.182     999.000     29.7     98     1.5     200     4.1   780.10   15.48   -3.30  
  58   14:10    0.161     999.000     30.6     92     1.9     189     5.0   779.80   15.47   -3.20  
  58   14:20    0.047     999.000     30.7     91     3.1     254     6.5   779.60   15.48   -3.10  
  58   14:30    0.018     999.000     30.1     96     3.4     250    11.0   779.70   15.49   -3.10  
  58   14:40    0.015     999.000     29.1    100     3.0     280     6.8   779.80   15.50   125.70  
  58   14:50    0.022     999.000     28.5    103     2.5     287     5.1   779.60   15.53   171.00  
  58   15:00    0.019     999.000     28.5    109     2.7     258     6.8   779.50   15.55   175.60  
  58   15:10    0.031     999.000     28.9    110     1.9     235     6.6   779.40   15.55   175.50  
  58   15:20    0.032     999.000     29.6    110     2.3     201     5.7   779.30   15.55   175.50  
  58   15:30    0.081     999.000     30.6     98     3.7     213    10.6   779.20   15.56   175.50  
  58   15:40    0.095     999.000     32.0     84     2.9     217    10.4   779.20   15.55   175.50  
  58   15:50    0.062     999.000     31.7     82     3.5     217    11.9   779.20   15.56   169.50  
  58   16:00    0.103     999.000     32.1     77     4.3     216    10.2   779.20   15.58   15.40  
  58   16:10    0.058     999.000     32.1     80     4.2     216    11.2   779.10   15.58   -5.60  
  58   16:20    0.016     999.000     31.4     84     1.5     204     4.8   779.10   15.58    0.30  
  58   16:30    0.004     999.000     30.9     87     2.2     224     8.5   779.10   15.55   81.80  
  58   16:40    0.004     999.000     29.3     94     3.7     204    10.2   779.20   15.57   165.70  
  58   16:50    0.009     999.000     28.3    110     2.4     194     6.3   779.10   15.59   175.60  
  58   17:00    0.010     999.000     28.6    113     2.1     208     8.1   779.00   15.59   175.60  
  58   17:10    0.008     999.000     28.9    115     1.9     208     5.7   779.00   15.59   175.60  
  58   17:20    0.006     999.000     29.2    116     1.8     214     5.3   778.90   15.60   175.60  
  58   17:30    0.005     999.000     29.3    117     2.2     202     7.2   778.90   15.59   175.60  
  58   17:40    0.001     999.000     29.3    117     2.4     212     5.6   778.90   15.59   175.60  
  58   17:50    0.001     999.000     29.3    117     2.3     196     6.4   778.70   15.59   175.60  
  58   18:00    0.000     999.000     29.2    116     1.9     208     7.0   778.80   15.59   175.60  
  58   18:10    0.000     999.000     29.1    116     2.7     213     7.2   778.70   15.59   175.60  
  58   18:20    0.000     999.000     28.8    115     1.5     220     3.8   778.80   15.59   175.60  
  58   18:30    0.000     999.000     28.8    116     2.2     245     7.7   778.90   15.60   175.60  
  58   18:40    0.000     999.000     28.7    116     1.2     233     3.6   778.80   15.60   175.60  
  58   18:50    0.000     999.000     28.7    116     1.6     203     4.4   778.80   15.59   175.60  
  58   19:00    0.000     999.000     28.8    116     2.1     200     6.0   778.90   15.59   175.60  
  58   19:10    0.000     999.000     28.8    116     2.1     200     6.7   778.80   15.60   175.60  
  58   19:20    0.000     999.000     28.8    116     2.7     241     8.3   778.70   15.59   175.60  
  58   19:30    0.000     999.000     28.7    113     1.7     205     4.4   778.50   15.60   175.60  
  58   19:40    0.000     999.000     28.5    113     1.8     210     5.9   778.40   15.60   175.60  
  58   19:50    0.000     999.000     28.6    114     0.9     330     3.3   778.40   15.59   175.60  
  58   20:00    0.000     999.000     28.6    115     0.7       0     2.9   778.30   15.60   175.60  
  58   20:10    0.000     999.000     28.5    114     0.7     213     2.5   778.20   15.60   175.50  
  58   20:20    0.000     999.000     28.5    113     0.8     251     3.5   778.20   15.60   175.60  
  58   20:30    0.000     999.000     28.5    114     0.4      75     1.6   778.10   15.60   175.60  
  58   20:40    0.000     999.000     28.6    114     0.4     217     2.2   778.10   15.60   175.60  
  58   20:50    0.000     999.000     28.5    115     1.0     214     3.2   778.20   15.62   175.60  
  58   21:00    0.000     999.000     28.3    116     2.0     215     4.0   778.10   15.62   175.60  
  58   21:10    0.000     999.000     28.2    116     1.9     202     4.5   778.20   15.63   175.60  
  58   21:20    0.000     999.000     28.1    116     1.5     217     7.4   778.20   15.63   175.60  
  58   21:30    0.000     999.000     28.1    117     1.2     219     3.9   778.10   15.63   175.60  
  58   21:40    0.000     999.000     28.0    117     1.6     197     4.1   778.10   15.65   175.60  

Return to Central Sierra Snow Lab graphs page.


Western Regional Climate Center,wrcc@dri.edu